createdAt,value
2022-11-18T00:02:21.736Z,10.86
2022-11-18T00:04:48.825Z,10.86
2022-11-18T00:07:15.802Z,10.76
2022-11-18T00:09:42.715Z,10.51
2022-11-18T00:12:28.422Z,10.85
2022-11-18T00:14:55.334Z,10.81
2022-11-18T00:17:22.351Z,10.68
2022-11-18T00:19:49.321Z,10.56
2022-11-18T00:22:16.292Z,10.54
2022-11-18T00:24:43.251Z,10.73
2022-11-18T00:27:10.176Z,10.75
2022-11-18T00:29:38.144Z,10.80
2022-11-18T00:32:05.823Z,10.79
2022-11-18T00:34:32.670Z,10.59
2022-11-18T00:36:59.529Z,10.73
2022-11-18T00:39:26.542Z,10.75
2022-11-18T00:42:11.949Z,10.86
2022-11-18T00:44:39.185Z,10.58
2022-11-18T00:47:06.250Z,10.76
2022-11-18T00:49:33.183Z,10.64
2022-11-18T00:52:01.371Z,10.67
2022-11-18T00:54:28.418Z,10.91
2022-11-18T00:56:55.483Z,10.59
2022-11-18T00:59:22.751Z,10.56
2022-11-18T01:01:49.668Z,10.82
2022-11-18T01:04:17.062Z,10.76
2022-11-18T01:06:44.566Z,10.90
2022-11-18T01:09:11.790Z,10.91
2022-11-18T01:11:57.573Z,10.88
2022-11-18T01:14:26.148Z,10.82
2022-11-18T01:16:57.190Z,10.77
2022-11-18T01:19:25.534Z,10.78
2022-11-18T01:21:52.511Z,10.86
2022-11-18T01:24:19.726Z,10.97
2022-11-18T01:26:46.672Z,10.91
2022-11-18T01:29:13.690Z,10.90
2022-11-18T01:31:55.695Z,10.87
2022-11-18T01:34:30.903Z,10.57
2022-11-18T01:36:58.768Z,10.86
2022-11-18T01:39:25.860Z,10.82
2022-11-18T01:41:52.783Z,10.50
2022-11-18T01:44:57.179Z,10.81
2022-11-18T01:47:28.332Z,10.69
2022-11-18T01:49:55.481Z,10.72
2022-11-18T01:52:23.745Z,10.71
2022-11-18T01:54:57.854Z,10.49
2022-11-18T01:57:27.731Z,10.65
2022-11-18T01:59:59.755Z,10.41
2022-11-18T02:02:27.738Z,10.46
2022-11-18T02:04:56.745Z,10.42
2022-11-18T02:07:24.931Z,10.61
2022-11-18T02:09:53.314Z,10.59
2022-11-18T02:12:21.064Z,10.49
2022-11-18T02:14:48.286Z,10.49
2022-11-18T02:17:30.314Z,10.44
2022-11-18T02:20:09.188Z,10.21
2022-11-18T02:23:18.217Z,10.20
2022-11-18T02:26:12.937Z,10.17
2022-11-18T02:28:58.667Z,10.15
2022-11-18T02:31:44.121Z,10.07
2022-11-18T02:34:16.695Z,10.10
2022-11-18T02:36:57.920Z,9.66
2022-11-18T02:39:44.027Z,9.73
2022-11-18T02:42:12.969Z,10.02
2022-11-18T02:44:44.889Z,10.01
2022-11-18T02:47:15.478Z,9.71
2022-11-18T02:49:47.244Z,9.82
2022-11-18T02:52:16.826Z,9.65
2022-11-18T02:54:47.457Z,9.87
2022-11-18T02:57:15.863Z,9.48
2022-11-18T02:59:42.889Z,9.72
2022-11-18T03:02:16.549Z,9.83
2022-11-18T03:04:45.424Z,9.81
2022-11-18T03:07:20.316Z,9.52
2022-11-18T03:09:51.575Z,9.62
2022-11-18T03:12:48.014Z,9.70
2022-11-18T03:15:20.597Z,9.75
2022-11-18T03:17:59.033Z,9.70
2022-11-18T03:20:31.122Z,9.62
2022-11-18T03:23:20.271Z,9.48
2022-11-18T03:26:16.755Z,9.68
2022-11-18T03:29:08.331Z,9.55
2022-11-18T03:31:41.156Z,9.31
2022-11-18T03:34:15.180Z,9.58
2022-11-18T03:36:51.808Z,9.47
2022-11-18T03:39:22.385Z,9.39
2022-11-18T03:42:06.729Z,9.45
2022-11-18T03:44:37.534Z,9.57
2022-11-18T03:47:24.712Z,9.45
2022-11-18T03:49:58.186Z,9.17
2022-11-18T03:52:31.748Z,9.38
2022-11-18T03:55:02.737Z,9.60
2022-11-18T03:57:47.013Z,9.52
2022-11-18T04:00:16.731Z,9.50
2022-11-18T04:02:45.373Z,8.77
2022-11-18T04:05:15.140Z,9.55
2022-11-18T04:08:02.983Z,9.50
2022-11-18T04:10:45.914Z,9.10
2022-11-18T04:13:24.735Z,9.05
2022-11-18T04:15:53.763Z,9.57
2022-11-18T04:18:20.680Z,9.36
2022-11-18T04:20:47.701Z,9.57
2022-11-18T04:23:14.644Z,8.92
2022-11-18T04:25:41.707Z,8.80
2022-11-18T04:28:09.097Z,8.89
2022-11-18T04:30:36.154Z,9.11
2022-11-18T04:33:03.175Z,9.43
2022-11-18T04:35:30.105Z,9.19
2022-11-18T04:37:57.045Z,9.16
2022-11-18T04:40:23.920Z,9.25
2022-11-18T04:42:51.083Z,9.21
2022-11-18T04:45:18.076Z,9.19
2022-11-18T04:47:45.050Z,9.34
2022-11-18T04:50:11.934Z,9.28
2022-11-18T04:52:38.972Z,9.37
2022-11-18T04:55:06.120Z,9.40
2022-11-18T04:57:33.056Z,9.42
2022-11-18T04:59:59.960Z,9.14
2022-11-18T05:02:27.010Z,9.48
2022-11-18T05:04:53.940Z,9.13
2022-11-18T05:07:20.944Z,9.47
2022-11-18T05:09:47.976Z,9.50
2022-11-18T05:12:34.082Z,8.92
2022-11-18T05:15:01.430Z,9.23
2022-11-18T05:17:28.620Z,9.30
2022-11-18T05:19:55.635Z,9.21
2022-11-18T05:22:22.628Z,9.16
2022-11-18T05:24:49.656Z,9.18
2022-11-18T05:27:17.482Z,9.27
2022-11-18T05:29:44.455Z,9.07
2022-11-18T05:32:11.454Z,9.11
2022-11-18T05:34:40.140Z,8.91
2022-11-18T05:37:07.151Z,9.18
2022-11-18T05:39:34.118Z,9.21
2022-11-18T05:42:19.507Z,9.13
2022-11-18T05:44:46.873Z,9.05
2022-11-18T05:47:15.161Z,9.40
2022-11-18T05:49:42.037Z,9.16
2022-11-18T05:52:09.064Z,9.31
2022-11-18T05:54:41.299Z,9.37
2022-11-18T05:57:08.224Z,9.36
2022-11-18T05:59:35.333Z,9.37
2022-11-18T06:02:11.845Z,9.25
2022-11-18T06:04:59.387Z,9.30
2022-11-18T06:07:34.901Z,9.26
2022-11-18T06:10:05.988Z,9.14
2022-11-18T06:12:39.284Z,9.36
2022-11-18T06:15:21.526Z,9.27
2022-11-18T06:18:01.760Z,9.23
2022-11-18T06:20:29.236Z,9.17
2022-11-18T06:23:00.576Z,8.86
2022-11-18T06:25:28.816Z,9.28
2022-11-18T06:27:59.060Z,9.31
2022-11-18T06:30:26.035Z,9.16
2022-11-18T06:32:53.043Z,8.87
2022-11-18T06:35:20.048Z,9.23
2022-11-18T06:37:47.604Z,8.99
2022-11-18T06:40:14.718Z,8.93
2022-11-18T06:43:00.341Z,9.07
2022-11-18T06:45:27.422Z,9.25
2022-11-18T06:48:01.300Z,9.04
2022-11-18T06:50:29.030Z,9.03
2022-11-18T06:52:59.688Z,9.02
2022-11-18T06:55:26.721Z,9.26
2022-11-18T06:57:56.501Z,9.42
2022-11-18T07:00:23.678Z,9.47
2022-11-18T07:02:50.707Z,9.35
2022-11-18T07:05:17.688Z,9.51
2022-11-18T07:07:44.701Z,9.49
2022-11-18T07:10:11.724Z,9.63
2022-11-18T07:12:38.672Z,9.69
2022-11-18T07:15:05.994Z,9.81
2022-11-18T07:17:32.965Z,9.89
2022-11-18T07:20:00.105Z,9.93
2022-11-18T07:22:27.053Z,9.54
2022-11-18T07:24:53.930Z,10.04
2022-11-18T07:27:20.841Z,9.98
2022-11-18T07:29:47.969Z,10.06
2022-11-18T07:32:14.849Z,10.48
2022-11-18T07:34:41.932Z,10.53
2022-11-18T07:37:09.002Z,10.58
2022-11-18T07:39:35.910Z,10.60
2022-11-18T07:42:02.827Z,10.68
2022-11-18T07:44:29.770Z,10.84
2022-11-18T07:46:56.790Z,10.97
2022-11-18T07:49:23.788Z,11.15
2022-11-18T07:51:50.870Z,11.04
2022-11-18T07:54:17.980Z,11.37
2022-11-18T07:56:45.295Z,11.49
2022-11-18T07:59:12.357Z,11.39
2022-11-18T08:01:39.271Z,11.36
2022-11-18T08:04:13.193Z,11.70
2022-11-18T08:06:40.582Z,11.72
2022-11-18T08:09:08.594Z,11.72
2022-11-18T08:11:36.319Z,11.80
2022-11-18T08:14:03.718Z,11.93
2022-11-18T08:16:30.810Z,11.99
2022-11-18T08:19:00.856Z,12.13
2022-11-18T08:21:27.905Z,12.16
2022-11-18T08:23:57.116Z,12.14
2022-11-18T08:26:25.300Z,12.03
2022-11-18T08:28:53.068Z,12.01
2022-11-18T08:31:22.908Z,12.11
2022-11-18T08:33:49.959Z,12.03
2022-11-18T08:36:20.988Z,12.00
2022-11-18T08:38:48.261Z,11.97
2022-11-18T08:41:26.724Z,12.05
2022-11-18T08:43:53.724Z,11.92
2022-11-18T08:46:21.226Z,11.98
2022-11-18T08:48:48.112Z,12.19
2022-11-18T08:51:16.290Z,12.08
2022-11-18T08:53:43.361Z,12.27
2022-11-18T08:56:16.255Z,12.41
2022-11-18T08:58:43.609Z,12.50
2022-11-18T09:01:10.971Z,12.66
2022-11-18T09:03:38.565Z,12.74
2022-11-18T09:06:11.082Z,12.78
2022-11-18T09:08:38.375Z,12.62
2022-11-18T09:11:11.409Z,12.99
2022-11-18T09:14:38.938Z,13.06
2022-11-18T09:16:28.413Z,13.21
2022-11-18T09:18:57.192Z,13.03
2022-11-18T09:21:25.875Z,13.25
2022-11-18T09:23:53.292Z,13.24
2022-11-18T09:26:23.943Z,13.57
2022-11-18T09:28:54.041Z,13.72
2022-11-18T09:31:21.258Z,13.43
2022-11-18T09:33:48.489Z,13.82
2022-11-18T09:36:21.392Z,13.91
2022-11-18T09:38:52.940Z,13.82
2022-11-18T09:41:42.237Z,13.98
2022-11-18T09:44:36.569Z,14.05
2022-11-18T09:47:09.349Z,13.82
2022-11-18T09:49:38.832Z,13.68
2022-11-18T09:52:17.136Z,13.94
2022-11-18T09:54:45.340Z,14.01
2022-11-18T09:57:16.559Z,13.80
2022-11-18T09:59:44.504Z,13.76
2022-11-18T10:02:30.224Z,13.84
2022-11-18T10:05:13.615Z,13.78
2022-11-18T10:08:06.177Z,13.77
2022-11-18T10:10:56.623Z,13.82
2022-11-18T10:13:49.335Z,13.77
2022-11-18T10:16:58.590Z,13.79
2022-11-18T10:19:53.155Z,13.68
2022-11-18T10:22:27.843Z,13.60
2022-11-18T10:24:57.110Z,13.91
2022-11-18T10:27:33.541Z,13.55
2022-11-18T10:30:01.795Z,14.08
2022-11-18T10:32:29.155Z,13.91
2022-11-18T10:34:58.267Z,13.90
2022-11-18T10:37:45.395Z,14.08
2022-11-18T10:40:27.129Z,13.95
2022-11-18T10:42:54.306Z,13.89
2022-11-18T10:45:28.250Z,13.67
2022-11-18T10:47:59.480Z,13.91
2022-11-18T10:50:55.833Z,13.98
2022-11-18T10:53:39.527Z,13.83
2022-11-18T10:56:09.291Z,13.89
2022-11-18T10:58:41.509Z,13.99
2022-11-18T11:01:20.884Z,14.00
2022-11-18T11:04:01.225Z,13.99
2022-11-18T11:06:31.517Z,13.95
2022-11-18T11:09:01.936Z,13.48
2022-11-18T11:11:34.927Z,13.53
2022-11-18T11:14:46.581Z,13.60
2022-11-18T11:17:25.107Z,13.37
2022-11-18T11:20:09.782Z,13.51
2022-11-18T11:22:37.102Z,13.59
2022-11-18T11:25:13.215Z,13.28
2022-11-18T11:30:59.739Z,13.31
2022-11-18T11:33:41.048Z,13.29
2022-11-18T11:36:29.342Z,13.17
2022-11-18T11:39:17.689Z,13.12
2022-11-18T11:42:12.635Z,12.96
2022-11-18T11:45:02.743Z,13.06
2022-11-18T11:47:48.177Z,12.80
2022-11-18T11:50:31.464Z,12.61
2022-11-18T11:53:16.807Z,12.77
2022-11-18T11:55:55.768Z,12.73
2022-11-18T11:58:41.460Z,12.74
2022-11-18T12:01:26.888Z,12.75
2022-11-18T12:04:02.248Z,12.58
2022-11-18T12:06:29.874Z,12.58
2022-11-18T12:09:13.396Z,12.42
2022-11-18T12:11:55.897Z,12.63
2022-11-18T12:14:34.648Z,12.71
2022-11-18T12:17:12.122Z,12.76
2022-11-18T12:19:40.066Z,12.75
2022-11-18T12:22:07.222Z,12.81
2022-11-18T12:24:44.164Z,12.80
2022-11-18T12:27:34.412Z,12.73
2022-11-18T12:30:04.010Z,12.75
2022-11-18T12:32:48.362Z,12.67
2022-11-18T12:35:18.074Z,12.72
2022-11-18T12:37:50.800Z,12.71
2022-11-18T12:40:40.425Z,12.93
2022-11-18T12:43:32.164Z,12.86
2022-11-18T12:45:59.345Z,12.66
2022-11-18T12:48:40.023Z,12.89
2022-11-18T12:51:16.250Z,12.92
2022-11-18T12:53:46.059Z,12.77
2022-11-18T12:56:23.433Z,12.93
2022-11-18T12:58:55.825Z,12.92
2022-11-18T13:01:27.044Z,12.57
2022-11-18T13:04:12.543Z,12.76
2022-11-18T13:06:40.383Z,12.65
2022-11-18T13:09:23.416Z,12.58
2022-11-18T13:12:16.759Z,12.73
2022-11-18T13:15:03.568Z,12.84
2022-11-18T13:17:54.635Z,12.84
2022-11-18T13:20:37.587Z,12.81
2022-11-18T13:23:38.568Z,12.71
2022-11-18T13:26:12.225Z,12.65
2022-11-18T13:29:18.420Z,12.56
2022-11-18T13:32:16.579Z,12.62
2022-11-18T13:34:47.740Z,12.67
2022-11-18T13:37:26.809Z,12.34
2022-11-18T13:39:54.768Z,12.36
2022-11-18T13:42:27.740Z,12.43
2022-11-18T13:44:59.327Z,12.34
2022-11-18T13:47:43.838Z,12.33
2022-11-18T13:50:10.817Z,12.50
2022-11-18T13:52:41.718Z,12.13
2022-11-18T13:55:22.773Z,12.51
2022-11-18T13:57:52.925Z,12.53
2022-11-18T14:00:25.576Z,12.61
2022-11-18T14:03:00.422Z,12.42
2022-11-18T14:05:28.211Z,12.46
2022-11-18T14:08:05.420Z,12.52
2022-11-18T14:10:42.012Z,12.66
2022-11-18T14:13:33.408Z,12.63
2022-11-18T14:16:18.770Z,12.64
2022-11-18T14:18:47.433Z,12.42
2022-11-18T14:21:15.507Z,12.65
2022-11-18T14:23:44.441Z,12.64
2022-11-18T14:26:11.882Z,12.45
2022-11-18T14:28:39.746Z,12.17
2022-11-18T14:31:12.964Z,12.32
2022-11-18T14:33:40.388Z,12.04
2022-11-18T14:36:20.764Z,12.30
2022-11-18T14:41:50.041Z,12.08
2022-11-18T14:44:22.445Z,12.62
2022-11-18T14:46:53.712Z,12.09
2022-11-18T14:49:23.148Z,12.75
2022-11-18T14:51:52.126Z,12.46
2022-11-18T14:54:28.470Z,12.71
2022-11-18T14:57:00.347Z,12.66
2022-11-18T14:59:27.472Z,12.56
2022-11-18T15:01:55.048Z,12.28
2022-11-18T15:04:22.428Z,12.19
2022-11-18T15:06:53.126Z,12.23
2022-11-18T15:09:20.291Z,12.39
2022-11-18T15:11:47.918Z,12.06
2022-11-18T15:14:15.095Z,12.23
2022-11-18T15:16:43.762Z,11.72
2022-11-18T15:19:15.487Z,11.88
2022-11-18T15:21:43.727Z,12.07
2022-11-18T15:24:13.678Z,12.07
2022-11-18T15:26:46.073Z,12.18
2022-11-18T15:29:20.830Z,12.13
2022-11-18T15:31:48.328Z,12.08
2022-11-18T15:34:16.151Z,11.90
2022-11-18T15:36:43.305Z,11.91
2022-11-18T15:39:11.114Z,11.90
2022-11-18T15:41:39.953Z,11.58
2022-11-18T15:44:07.136Z,11.76
2022-11-18T15:46:34.592Z,11.67
2022-11-18T15:49:02.257Z,12.00
2022-11-18T15:51:30.314Z,12.05
2022-11-18T15:53:58.519Z,11.43
2022-11-18T15:56:30.270Z,11.87
2022-11-18T15:58:58.371Z,11.85
2022-11-18T16:01:28.026Z,11.84
2022-11-18T16:03:55.757Z,11.76
2022-11-18T16:06:24.042Z,11.32
2022-11-18T16:08:57.555Z,11.93
2022-11-18T16:11:45.155Z,11.88
2022-11-18T16:14:13.760Z,12.02
2022-11-18T16:16:44.235Z,11.94
2022-11-18T16:19:14.736Z,11.90
2022-11-18T16:21:44.659Z,11.79
2022-11-18T16:24:13.794Z,11.76
2022-11-18T16:26:40.745Z,11.77
2022-11-18T16:29:08.508Z,11.71
2022-11-18T16:31:41.264Z,11.89
2022-11-18T16:34:16.448Z,11.87
2022-11-18T16:36:49.385Z,11.77
2022-11-18T16:39:19.072Z,11.95
2022-11-18T16:41:46.919Z,11.68
2022-11-18T16:44:16.100Z,11.82
2022-11-18T16:46:47.880Z,11.80
2022-11-18T16:49:17.221Z,11.91
2022-11-18T16:51:47.408Z,11.91
2022-11-18T16:54:22.843Z,11.63
2022-11-18T16:56:51.434Z,11.57
2022-11-18T16:59:23.962Z,11.73
2022-11-18T17:01:52.494Z,11.36
2022-11-18T17:04:20.425Z,11.56
2022-11-18T17:06:47.877Z,11.58
2022-11-18T17:09:21.164Z,11.79
2022-11-18T17:11:49.274Z,11.19
2022-11-18T17:14:16.618Z,11.67
2022-11-18T17:16:43.745Z,11.54
2022-11-18T17:19:15.414Z,11.30
2022-11-18T17:21:43.034Z,11.35
2022-11-18T17:24:12.292Z,11.45
2022-11-18T17:26:39.447Z,11.69
2022-11-18T17:29:06.352Z,11.72
2022-11-18T17:31:33.963Z,11.49
2022-11-18T17:34:01.056Z,11.35
2022-11-18T17:36:29.128Z,11.58
2022-11-18T17:38:59.329Z,11.63
2022-11-18T17:41:46.416Z,11.35
2022-11-18T17:44:16.402Z,11.59
2022-11-18T17:46:44.378Z,11.61
2022-11-18T17:49:18.250Z,11.44
2022-11-18T17:51:46.745Z,11.44
2022-11-18T17:54:14.660Z,11.35
2022-11-18T17:56:41.793Z,11.55
2022-11-18T17:59:09.163Z,11.59
2022-11-18T18:01:36.155Z,11.53
2022-11-18T18:04:03.677Z,11.59
2022-11-18T18:06:30.863Z,11.37
2022-11-18T18:08:58.786Z,11.35
2022-11-18T18:11:27.078Z,11.42
2022-11-18T18:14:12.844Z,11.69
2022-11-18T18:16:47.134Z,11.55
2022-11-18T18:19:17.932Z,11.74
2022-11-18T18:21:45.941Z,11.68
2022-11-18T18:24:21.410Z,11.66
2022-11-18T18:26:49.223Z,11.62
2022-11-18T18:29:16.501Z,11.43
2022-11-18T18:31:43.559Z,11.61
2022-11-18T18:34:10.564Z,11.64
2022-11-18T18:36:38.163Z,11.49
2022-11-18T18:39:05.218Z,11.46
2022-11-18T18:41:32.672Z,11.39
2022-11-18T18:44:00.590Z,11.68
2022-11-18T18:46:34.351Z,11.75
2022-11-18T18:49:04.733Z,11.76
2022-11-18T18:51:39.991Z,11.50
2022-11-18T18:54:09.851Z,11.64
2022-11-18T18:56:38.975Z,11.58
2022-11-18T18:59:06.908Z,11.45
2022-11-18T19:01:34.295Z,11.75
2022-11-18T19:04:05.090Z,11.80
2022-11-18T19:09:25.951Z,11.57
2022-11-18T19:12:12.333Z,11.72
2022-11-18T19:14:39.528Z,11.76
2022-11-18T19:17:11.404Z,11.68
2022-11-18T19:19:58.987Z,11.85
2022-11-18T19:22:30.597Z,11.54
2022-11-18T19:24:58.359Z,11.55
2022-11-18T19:27:26.135Z,11.59
2022-11-18T19:29:53.086Z,11.87
2022-11-18T19:32:20.063Z,11.77
2022-11-18T19:34:47.035Z,11.68
2022-11-18T19:37:14.096Z,11.58
2022-11-18T19:39:41.021Z,11.85
2022-11-18T19:42:08.065Z,11.51
2022-11-18T19:44:35.010Z,11.80
2022-11-18T19:47:01.920Z,11.85
2022-11-18T19:49:28.852Z,11.66
2022-11-18T19:51:55.851Z,11.81
2022-11-18T19:54:22.802Z,11.87
2022-11-18T19:56:50.072Z,11.96
2022-11-18T19:59:17.453Z,11.86
2022-11-18T20:01:45.017Z,11.77
2022-11-18T20:04:12.115Z,11.91
2022-11-18T20:06:40.285Z,11.69
2022-11-18T20:09:08.877Z,11.96
2022-11-18T20:11:36.562Z,11.92
2022-11-18T20:14:03.543Z,11.87
2022-11-18T20:16:30.670Z,11.81
2022-11-18T20:19:00.376Z,11.58
2022-11-18T20:21:29.544Z,11.91
2022-11-18T20:23:59.525Z,11.93
2022-11-18T20:26:29.215Z,12.10
2022-11-18T20:28:57.730Z,11.69
2022-11-18T20:31:25.849Z,12.06
2022-11-18T20:33:54.488Z,12.05
2022-11-18T20:36:24.297Z,12.06
2022-11-18T20:38:56.058Z,11.89
2022-11-18T20:41:25.199Z,11.87
2022-11-18T20:43:52.351Z,11.88
2022-11-18T20:46:21.705Z,12.13
2022-11-18T20:48:50.025Z,12.14
2022-11-18T20:51:21.147Z,12.24
2022-11-18T20:53:48.283Z,12.03
2022-11-18T20:56:18.720Z,12.28
2022-11-18T20:58:46.392Z,12.06
2022-11-18T21:01:22.873Z,12.44
2022-11-18T21:04:06.101Z,12.24
2022-11-18T21:06:33.516Z,12.10
2022-11-18T21:09:03.130Z,12.12
2022-11-18T21:11:30.615Z,12.16
2022-11-18T21:14:21.614Z,12.15
2022-11-18T21:16:51.249Z,12.07
2022-11-18T21:19:18.793Z,12.10
2022-11-18T21:21:45.916Z,12.01
2022-11-18T21:24:17.611Z,12.07
2022-11-18T21:26:46.232Z,12.23
2022-11-18T21:29:15.644Z,12.23
2022-11-18T21:31:43.667Z,11.99
2022-11-18T21:34:10.967Z,11.92
2022-11-18T21:36:44.360Z,12.30
2022-11-18T21:39:13.589Z,12.23
2022-11-18T21:45:54.693Z,11.89
2022-11-18T21:48:21.764Z,11.82
2022-11-18T21:50:48.701Z,12.08
2022-11-18T21:53:16.298Z,12.09
2022-11-18T21:55:43.426Z,12.16
2022-11-18T21:58:10.288Z,12.12
2022-11-18T22:00:37.554Z,12.10
2022-11-18T22:03:04.583Z,11.82
2022-11-18T22:05:31.598Z,11.93
2022-11-18T22:07:58.499Z,11.96
2022-11-18T22:10:25.383Z,12.18
2022-11-18T22:12:52.513Z,12.06
2022-11-18T22:15:19.852Z,12.14
2022-11-18T22:17:46.883Z,12.12
2022-11-18T22:20:13.927Z,12.04
2022-11-18T22:22:40.909Z,12.16
2022-11-18T22:25:08.187Z,11.82
2022-11-18T22:27:35.100Z,12.23
2022-11-18T22:30:01.999Z,11.93
2022-11-18T22:32:28.884Z,11.75
2022-11-18T22:34:55.866Z,11.96
2022-11-18T22:37:22.828Z,11.96
2022-11-18T22:39:49.774Z,11.92
2022-11-18T22:42:35.789Z,11.91
2022-11-18T22:45:02.725Z,12.09
2022-11-18T22:47:29.579Z,12.09
2022-11-18T22:49:59.859Z,12.23
2022-11-18T22:52:26.727Z,12.06
2022-11-18T22:54:53.694Z,12.13
2022-11-18T22:57:20.733Z,12.29
2022-11-18T22:59:47.795Z,12.22
2022-11-18T23:02:14.884Z,11.90
2022-11-18T23:04:41.968Z,12.18
2022-11-18T23:07:08.926Z,12.25
2022-11-18T23:09:35.952Z,12.31
2022-11-18T23:12:21.600Z,12.15
2022-11-18T23:14:48.595Z,12.31
2022-11-18T23:17:16.168Z,12.34
2022-11-18T23:19:44.054Z,12.21
2022-11-18T23:22:12.221Z,12.33
2022-11-18T23:24:39.372Z,12.11
2022-11-18T23:27:06.431Z,12.10
2022-11-18T23:29:33.571Z,12.19
2022-11-18T23:32:00.460Z,12.27
2022-11-18T23:34:27.515Z,11.98
2022-11-18T23:36:54.633Z,12.38
2022-11-18T23:39:22.116Z,12.15
2022-11-18T23:41:49.257Z,12.25
2022-11-18T23:44:16.197Z,12.42
2022-11-18T23:46:43.109Z,12.31
2022-11-18T23:49:10.322Z,12.29
2022-11-18T23:51:37.308Z,12.20
2022-11-18T23:54:04.262Z,12.06
2022-11-18T23:56:36.437Z,11.87
2022-11-18T23:59:05.022Z,11.96
